createdAt,value
2022-09-26T00:30:15.151Z,0
2022-09-26T00:30:55.481Z,0
2022-09-26T00:31:35.933Z,0
2022-09-26T00:32:16.433Z,0
2022-09-26T00:32:56.934Z,0
2022-09-26T00:33:37.383Z,0
2022-09-26T00:34:17.873Z,0
2022-09-26T00:34:58.351Z,0
2022-09-26T00:35:38.836Z,0
2022-09-26T00:36:19.450Z,0
2022-09-26T00:37:00.004Z,0
2022-09-26T00:40:39.302Z,0
2022-09-26T00:41:19.805Z,0
2022-09-26T00:42:00.261Z,0
2022-09-26T00:42:40.722Z,0
2022-09-26T00:43:21.192Z,0
2022-09-26T00:44:01.679Z,0
2022-09-26T00:44:42.078Z,0
2022-09-26T00:45:22.620Z,0
2022-09-26T00:46:03.065Z,0
2022-09-26T00:46:43.543Z,0
2022-09-26T00:47:23.982Z,0
2022-09-26T00:54:49.314Z,0
2022-09-26T00:57:02.572Z,0
2022-09-26T00:57:43.174Z,0
2022-09-26T00:58:23.607Z,0
2022-09-26T00:59:04.059Z,0
2022-09-26T01:02:26.687Z,0
2022-09-26T01:03:07.128Z,0
2022-09-26T01:03:47.673Z,0
2022-09-26T01:04:28.123Z,0
2022-09-26T01:05:08.695Z,0
2022-09-26T01:05:49.138Z,0
2022-09-26T01:06:29.582Z,0
2022-09-26T01:07:10.125Z,0
2022-09-26T01:07:50.636Z,0
2022-09-26T01:08:31.231Z,0
2022-09-26T01:15:16.219Z,0
2022-09-26T01:15:56.690Z,0
2022-09-26T01:16:37.209Z,0
2022-09-26T01:17:17.576Z,0
2022-09-26T01:17:58.175Z,0
2022-09-26T01:18:38.567Z,0
2022-09-26T01:19:19.017Z,0
2022-09-26T01:19:59.507Z,0
2022-09-26T01:20:40.018Z,0
2022-09-26T01:21:20.509Z,0
2022-09-26T01:22:00.976Z,0
2022-09-26T01:26:56.299Z,0
2022-09-26T01:27:36.910Z,0
2022-09-26T01:28:17.331Z,0
2022-09-26T01:28:57.901Z,0
2022-09-26T01:29:38.388Z,0
2022-09-26T01:30:18.826Z,0
2022-09-26T01:30:59.358Z,0
2022-09-26T01:31:39.840Z,0
2022-09-26T01:32:20.356Z,0
2022-09-26T01:33:00.786Z,0
2022-09-26T01:40:26.181Z,0
2022-09-26T01:41:06.570Z,0
2022-09-26T01:41:47.028Z,0
2022-09-26T01:42:27.559Z,0
2022-09-26T01:43:08.011Z,0
2022-09-26T01:43:48.461Z,0
2022-09-26T01:44:28.936Z,0
2022-09-26T01:45:09.431Z,0
2022-09-26T01:45:49.979Z,0
2022-09-26T01:46:30.470Z,0
2022-09-26T01:47:10.909Z,0
2022-09-26T01:54:36.227Z,0
2022-09-26T01:55:16.825Z,0
2022-09-26T01:55:57.358Z,0
2022-09-26T01:56:37.826Z,0
2022-09-26T01:57:18.239Z,0
2022-09-26T01:57:58.722Z,0
2022-09-26T01:58:39.246Z,0
2022-09-26T01:59:19.702Z,0
2022-09-26T02:00:00.945Z,0
2022-09-26T02:07:26.309Z,0
2022-09-26T02:08:06.873Z,0
2022-09-26T02:08:47.405Z,0
2022-09-26T02:09:27.856Z,0
2022-09-26T02:10:08.312Z,0
2022-09-26T02:10:48.785Z,0
2022-09-26T02:11:29.297Z,0
2022-09-26T02:12:09.774Z,0
2022-09-26T02:12:50.292Z,0
2022-09-26T02:13:30.771Z,0
2022-09-26T02:14:11.224Z,0
2022-09-26T02:20:56.178Z,0
2022-09-26T02:21:36.561Z,0
2022-09-26T02:22:17.037Z,0
2022-09-26T02:22:57.521Z,0
2022-09-26T02:23:38.014Z,0
2022-09-26T02:24:18.515Z,0
2022-09-26T02:24:58.946Z,0
2022-09-26T02:25:39.418Z,0
2022-09-26T02:26:19.989Z,0
2022-09-26T02:27:00.452Z,0
2022-09-26T02:35:06.356Z,0
2022-09-26T02:35:46.862Z,0
2022-09-26T02:36:27.331Z,0
2022-09-26T02:37:07.867Z,0
2022-09-26T02:37:48.349Z,0
2022-09-26T02:38:28.889Z,0
2022-09-26T02:39:09.301Z,0
2022-09-26T02:39:49.779Z,0
2022-09-26T02:40:30.338Z,0
2022-09-26T02:41:10.750Z,0
2022-09-26T02:41:51.229Z,0
2022-09-26T02:48:36.208Z,0
2022-09-26T02:49:16.742Z,0
2022-09-26T02:49:57.190Z,0
2022-09-26T02:50:37.641Z,0
2022-09-26T02:51:18.136Z,0
2022-09-26T02:51:58.677Z,0
2022-09-26T02:52:39.129Z,0
2022-09-26T02:53:19.619Z,0
2022-09-26T02:54:00.146Z,0
2022-09-26T02:54:40.598Z,0
2022-09-26T02:55:21.088Z,0
2022-09-26T03:02:46.278Z,0
2022-09-26T03:03:26.728Z,0
2022-09-26T03:04:07.243Z,0
2022-09-26T03:04:47.782Z,0
2022-09-26T03:05:28.161Z,0
2022-09-26T03:06:08.681Z,0
2022-09-26T03:06:49.145Z,0
2022-09-26T03:07:29.639Z,0
2022-09-26T03:08:10.087Z,0
2022-09-26T03:08:50.560Z,0
2022-09-26T03:09:31.020Z,0
2022-09-26T03:18:14.451Z,0
2022-09-26T03:18:54.903Z,0
2022-09-26T03:19:35.396Z,0
2022-09-26T03:20:15.856Z,0
2022-09-26T03:20:56.352Z,0
2022-09-26T03:21:37.345Z,0
2022-09-26T03:22:17.330Z,0
2022-09-26T03:22:57.801Z,0
2022-09-26T03:23:38.358Z,0
2022-09-26T03:24:18.791Z,0
2022-09-26T03:31:44.210Z,0
2022-09-26T03:32:24.655Z,0
2022-09-26T03:33:05.151Z,0
2022-09-26T03:33:45.725Z,0
2022-09-26T03:34:26.122Z,0
2022-09-26T03:35:06.591Z,0
2022-09-26T03:35:47.051Z,0
2022-09-26T03:36:28.439Z,0
2022-09-26T03:37:10.674Z,0
2022-09-26T03:41:54.167Z,0
2022-09-26T03:42:34.135Z,0
2022-09-26T03:43:14.638Z,0
2022-09-26T03:43:55.122Z,0
2022-09-26T03:44:35.599Z,0
2022-09-26T03:45:16.037Z,0
2022-09-26T03:45:56.563Z,0
2022-09-26T03:46:39.951Z,0
2022-09-26T03:47:17.420Z,0
2022-09-26T03:48:38.388Z,0
2022-09-26T03:49:18.839Z,0
2022-09-26T03:56:44.383Z,0
2022-09-26T03:57:24.855Z,0
2022-09-26T03:58:05.392Z,0
2022-09-26T03:58:45.825Z,0
2022-09-26T03:59:26.333Z,0
2022-09-26T04:00:06.873Z,0
2022-09-26T04:00:47.431Z,0
2022-09-26T04:01:27.884Z,0
2022-09-26T04:02:08.428Z,0
2022-09-26T04:02:48.866Z,0
2022-09-26T04:07:26.151Z,0
2022-09-26T04:08:07.328Z,0
2022-09-26T04:08:47.818Z,0
2022-09-26T04:09:28.308Z,0
2022-09-26T04:10:08.783Z,0
2022-09-26T04:10:49.276Z,0
2022-09-26T04:11:29.810Z,0
2022-09-26T04:12:10.274Z,0
2022-09-26T04:12:50.753Z,0
2022-09-26T04:19:35.823Z,0
2022-09-26T04:20:16.295Z,0
2022-09-26T04:20:56.810Z,0
2022-09-26T04:21:37.272Z,0
2022-09-26T04:22:17.836Z,0
2022-09-26T04:23:38.772Z,0
2022-09-26T04:24:19.281Z,0
2022-09-26T04:24:59.747Z,0
2022-09-26T04:25:40.237Z,0
2022-09-26T04:26:23.487Z,0
2022-09-26T04:33:06.080Z,0
2022-09-26T04:33:46.600Z,0
2022-09-26T04:34:27.662Z,0
2022-09-26T04:35:07.598Z,0
2022-09-26T04:35:48.067Z,0
2022-09-26T04:36:28.606Z,0
2022-09-26T04:37:09.098Z,0
2022-09-26T04:37:49.535Z,0
2022-09-26T04:38:30.076Z,0
2022-09-26T04:39:10.618Z,0
2022-09-26T04:39:50.975Z,0
2022-09-26T04:46:36.137Z,0
2022-09-26T04:47:17.606Z,0
2022-09-26T04:47:58.076Z,0
2022-09-26T04:48:38.528Z,0
2022-09-26T04:49:19.026Z,0
2022-09-26T04:49:59.547Z,0
2022-09-26T04:51:20.876Z,0
2022-09-26T04:57:42.885Z,0
2022-09-26T04:58:24.223Z,0
2022-09-26T04:59:04.772Z,0
2022-09-26T04:59:45.247Z,0
2022-09-26T05:00:26.331Z,0
2022-09-26T05:03:40.716Z,0
2022-09-26T05:04:23.963Z,0
2022-09-26T05:05:01.585Z,4
2022-09-26T05:05:41.717Z,0
2022-09-26T05:06:22.438Z,0
2022-09-26T05:07:02.871Z,4
2022-09-26T05:07:43.388Z,0
2022-09-26T05:08:24.137Z,4
2022-09-26T05:09:04.630Z,0
2022-09-26T05:09:45.164Z,4
2022-09-26T05:15:10.329Z,12
2022-09-26T05:15:51.226Z,8
2022-09-26T05:16:31.680Z,12
2022-09-26T05:17:11.968Z,12
2022-09-26T05:17:52.523Z,12
2022-09-26T05:18:32.983Z,12
2022-09-26T05:19:14.563Z,16
2022-09-26T05:19:54.695Z,16
2022-09-26T05:20:35.163Z,24
2022-09-26T05:25:34.485Z,44
2022-09-26T05:26:14.675Z,48
2022-09-26T05:28:43.098Z,60
2022-09-26T05:29:23.919Z,60
2022-09-26T05:30:04.266Z,60
2022-09-26T05:30:45.018Z,60
2022-09-26T05:32:06.185Z,64
2022-09-26T05:32:46.617Z,68
2022-09-26T05:33:27.088Z,72
2022-09-26T05:37:32.641Z,48
2022-09-26T05:38:13.016Z,52
2022-09-26T05:38:53.624Z,56
2022-09-26T05:39:36.758Z,56
2022-09-26T05:40:14.735Z,64
2022-09-26T05:40:55.335Z,72
2022-09-26T05:41:35.894Z,80
2022-09-26T05:42:16.501Z,92
2022-09-26T05:42:57.030Z,104
2022-09-26T05:43:37.605Z,120
2022-09-26T05:48:23.125Z,176
2022-09-26T05:49:03.703Z,148
2022-09-26T05:49:44.398Z,132
2022-09-26T05:50:25.088Z,136
2022-09-26T05:51:05.810Z,140
2022-09-26T05:51:46.107Z,152
2022-09-26T05:52:30.140Z,156
2022-09-26T06:32:05.989Z,1740
2022-09-26T06:32:46.500Z,1496
2022-09-26T06:33:32.633Z,1080
2022-09-26T06:34:08.305Z,980
2022-09-26T06:34:48.832Z,992
2022-09-26T06:35:29.477Z,1024
2022-09-26T06:36:10.018Z,1048
2022-09-26T06:36:50.648Z,1076
2022-09-26T06:41:35.725Z,1292
2022-09-26T06:42:16.188Z,1312
2022-09-26T06:42:56.861Z,1348
2022-09-26T06:43:37.428Z,1420
2022-09-26T06:44:17.932Z,1536
2022-09-26T06:44:59.028Z,1928
2022-09-26T06:45:39.765Z,1980
2022-09-26T06:55:58.590Z,952
2022-09-26T06:56:40.066Z,952
2022-09-26T06:57:20.706Z,960
2022-09-26T06:58:01.271Z,1020
2022-09-26T06:58:41.819Z,1072
2022-09-26T06:59:24.926Z,944
2022-09-26T07:04:17.181Z,808
2022-09-26T07:04:59.845Z,804
2022-09-26T07:05:40.537Z,812
2022-09-26T07:06:21.783Z,812
2022-09-26T07:07:06.772Z,812
2022-09-26T07:07:47.630Z,816
2022-09-26T07:08:50.375Z,812
2022-09-26T07:09:12.150Z,812
2022-09-26T07:09:49.590Z,800
2022-09-26T07:10:30.360Z,788
2022-09-26T07:11:32.546Z,772
2022-09-26T07:13:16.139Z,736
2022-09-26T07:13:57.670Z,728
2022-09-26T07:14:38.094Z,716
2022-09-26T07:15:18.792Z,696
2022-09-26T07:15:59.612Z,680
2022-09-26T07:16:40.232Z,664
2022-09-26T07:19:54.345Z,596
2022-09-26T07:20:35.224Z,596
2022-09-26T07:21:15.784Z,604
2022-09-26T07:21:56.302Z,612
2022-09-26T07:22:36.955Z,616
2022-09-26T07:23:17.423Z,620
2022-09-26T07:23:58.786Z,616
2022-09-26T07:28:44.028Z,584
2022-09-26T07:29:24.442Z,580
2022-09-26T07:30:12.325Z,584
2022-09-26T07:30:53.796Z,584
2022-09-26T07:31:35.111Z,588
2022-09-26T07:32:23.231Z,584
2022-09-26T07:36:58.022Z,516
2022-09-26T07:37:41.875Z,500
2022-09-26T07:38:22.605Z,484
2022-09-26T07:39:03.890Z,472
2022-09-26T07:41:19.315Z,460
2022-09-26T07:42:00.534Z,460
2022-09-26T07:42:41.490Z,448
2022-09-26T07:43:30.766Z,424
2022-09-26T07:48:08.158Z,352
2022-09-26T07:48:48.828Z,356
2022-09-26T07:49:29.380Z,360
2022-09-26T07:50:10.191Z,368
2022-09-26T07:52:33.126Z,376
2022-09-26T07:53:20.400Z,384
2022-09-26T07:55:36.768Z,384
2022-09-26T07:56:16.686Z,380
2022-09-26T07:56:57.265Z,380
2022-09-26T07:59:31.447Z,404
2022-09-26T08:00:12.963Z,400
2022-09-26T08:00:54.278Z,400
2022-09-26T08:01:34.182Z,400
2022-09-26T08:02:14.676Z,400
2022-09-26T08:02:55.337Z,396
2022-09-26T08:03:35.771Z,388
2022-09-26T08:04:17.193Z,384
2022-09-26T08:08:21.502Z,352
2022-09-26T08:09:02.057Z,348
2022-09-26T08:09:42.941Z,344
2022-09-26T08:10:23.578Z,344
2022-09-26T08:11:04.489Z,336
2022-09-26T08:11:44.454Z,332
2022-09-26T08:12:24.930Z,332
2022-09-26T08:13:05.444Z,332
2022-09-26T08:13:46.123Z,336
2022-09-26T08:19:51.583Z,328
2022-09-26T08:20:32.561Z,332
2022-09-26T08:21:13.148Z,340
2022-09-26T08:21:53.862Z,336
2022-09-26T08:22:34.303Z,336
2022-09-26T08:23:15.738Z,344
2022-09-26T08:26:44.523Z,372
2022-09-26T08:27:22.344Z,380
2022-09-26T08:28:03.951Z,384
2022-09-26T08:28:44.748Z,392
2022-09-26T08:29:25.304Z,396
2022-09-26T08:30:06.026Z,404
2022-09-26T08:30:48.001Z,416
2022-09-26T08:33:31.243Z,472
2022-09-26T08:34:12.514Z,488
2022-09-26T08:34:53.099Z,504
2022-09-26T08:35:33.970Z,516
2022-09-26T08:36:14.825Z,536
2022-09-26T08:36:56.436Z,548
2022-09-26T08:40:22.319Z,592
2022-09-26T08:41:02.893Z,608
2022-09-26T08:41:43.548Z,624
2022-09-26T08:42:23.988Z,636
2022-09-26T08:43:45.813Z,652
2022-09-26T08:44:27.060Z,648
2022-09-26T08:47:55.167Z,560
2022-09-26T08:48:37.458Z,548
2022-09-26T08:51:25.525Z,492
2022-09-26T08:52:02.719Z,488
2022-09-26T08:52:43.487Z,484
2022-09-26T08:53:24.050Z,488
2022-09-26T08:54:04.499Z,488
2022-09-26T08:54:45.667Z,480
2022-09-26T08:55:26.261Z,476
2022-09-26T09:00:51.397Z,412
2022-09-26T09:01:32.881Z,416
2022-09-26T09:02:13.626Z,420
2022-09-26T09:02:54.947Z,424
2022-09-26T09:03:35.725Z,424
2022-09-26T09:04:16.433Z,428
2022-09-26T09:09:44.923Z,536
2022-09-26T09:10:24.996Z,544
2022-09-26T09:11:05.546Z,524
2022-09-26T09:11:49.103Z,508
2022-09-26T09:18:31.501Z,416
2022-09-26T09:19:12.036Z,424
2022-09-26T09:19:52.495Z,420
2022-09-26T09:20:33.027Z,424
2022-09-26T09:21:13.526Z,432
2022-09-26T09:21:54.044Z,424
2022-09-26T09:22:34.610Z,432
2022-09-26T09:23:15.254Z,432
2022-09-26T09:23:55.764Z,424
2022-09-26T09:24:36.331Z,424
2022-09-26T09:28:07.848Z,488
2022-09-26T09:28:45.786Z,512
2022-09-26T09:29:25.823Z,524
2022-09-26T09:30:15.622Z,516
2022-09-26T09:35:09.612Z,580
2022-09-26T09:35:52.863Z,572
2022-09-26T09:36:33.897Z,564
2022-09-26T09:37:14.945Z,556
2022-09-26T09:39:19.376Z,564
2022-09-26T09:40:00.426Z,576
2022-09-26T09:40:41.791Z,584
2022-09-26T09:41:23.246Z,572
2022-09-26T09:48:32.507Z,412
2022-09-26T09:49:13.696Z,404
2022-09-26T09:49:55.168Z,404
2022-09-26T09:50:51.307Z,432
2022-09-26T09:54:50.602Z,512
2022-09-26T09:55:29.105Z,536
2022-09-26T09:56:11.148Z,548
2022-09-26T09:56:51.596Z,556
2022-09-26T09:58:13.663Z,604
2022-09-26T10:00:51.159Z,704
2022-09-26T10:01:34.011Z,700
2022-09-26T10:02:15.545Z,664
2022-09-26T10:02:56.279Z,644
2022-09-26T10:03:36.608Z,616
2022-09-26T10:04:17.165Z,584
2022-09-26T10:04:57.708Z,560
2022-09-26T10:05:38.278Z,560
2022-09-26T10:06:44.893Z,556
2022-09-26T10:06:59.429Z,556
2022-09-26T10:11:05.508Z,572
2022-09-26T10:11:51.868Z,568
2022-09-26T10:12:29.169Z,564
2022-09-26T10:14:43.682Z,568
2022-09-26T10:15:23.987Z,584
2022-09-26T10:16:04.983Z,588
2022-09-26T10:16:47.693Z,604
2022-09-26T10:18:27.734Z,612
2022-09-26T10:18:53.625Z,628
2022-09-26T10:19:34.739Z,636
2022-09-26T10:20:15.717Z,676
2022-09-26T10:23:49.733Z,636
2022-09-26T10:24:30.318Z,604
2022-09-26T10:25:10.921Z,604
2022-09-26T10:25:51.794Z,624
2022-09-26T10:26:32.370Z,608
2022-09-26T10:27:13.095Z,616
2022-09-26T10:27:53.671Z,604
2022-09-26T10:35:07.058Z,564
2022-09-26T10:35:48.341Z,560
2022-09-26T10:36:29.336Z,556
2022-09-26T10:37:10.801Z,560
2022-09-26T10:37:54.263Z,552
2022-09-26T10:39:17.191Z,588
2022-09-26T10:39:57.765Z,612
2022-09-26T10:40:39.356Z,656
2022-09-26T10:41:20.779Z,708
2022-09-26T10:42:01.542Z,792
2022-09-26T10:42:42.405Z,856
2022-09-26T10:45:30.869Z,956
2022-09-26T10:46:14.269Z,916
2022-09-26T10:46:57.198Z,896
2022-09-26T10:47:43.097Z,892
2022-09-26T10:50:42.423Z,880
2022-09-26T10:51:23.421Z,856
2022-09-26T10:52:04.175Z,840
2022-09-26T10:52:44.697Z,828
2022-09-26T10:53:25.389Z,824
2022-09-26T10:57:43.641Z,908
2022-09-26T10:58:23.992Z,924
2022-09-26T10:59:05.865Z,960
2022-09-26T10:59:47.167Z,1000
2022-09-26T11:00:27.875Z,1036
2022-09-26T11:01:51.641Z,1136
2022-09-26T11:02:33.328Z,1208
2022-09-26T11:03:14.352Z,1232
2022-09-26T11:06:41.792Z,1380
2022-09-26T11:07:23.550Z,1368
2022-09-26T11:08:04.799Z,1340
2022-09-26T11:08:45.492Z,1300
2022-09-26T11:09:30.181Z,1248
2022-09-26T11:10:10.867Z,1192
2022-09-26T11:10:51.681Z,1152
2022-09-26T11:15:29.828Z,1180
2022-09-26T11:16:13.718Z,1228
2022-09-26T11:19:59.600Z,1328
2022-09-26T11:25:25.609Z,1468
2022-09-26T11:26:06.380Z,1512
2022-09-26T11:26:47.573Z,1536
2022-09-26T11:27:28.136Z,1544
2022-09-26T11:28:08.654Z,1524
2022-09-26T11:28:49.165Z,1492
2022-09-26T11:29:29.922Z,1456
2022-09-26T11:30:12.363Z,1424
2022-09-26T11:34:15.922Z,1412
2022-09-26T11:34:56.307Z,1384
2022-09-26T11:35:37.525Z,1352
2022-09-26T11:36:28.024Z,1316
2022-09-26T11:37:08.666Z,1280
2022-09-26T11:37:49.211Z,1256
2022-09-26T11:38:29.778Z,1220
2022-09-26T11:39:10.517Z,1192
2022-09-26T11:45:37.825Z,1076
2022-09-26T11:46:14.829Z,1064
2022-09-26T11:46:54.987Z,1044
2022-09-26T11:50:08.658Z,948
2022-09-26T11:50:53.801Z,928
2022-09-26T11:51:33.455Z,908
2022-09-26T11:52:14.050Z,896
2022-09-26T12:32:35.612Z,680
2022-09-26T12:33:16.832Z,696
2022-09-26T12:33:57.398Z,720
2022-09-26T12:34:37.944Z,720
2022-09-26T12:35:18.505Z,748
2022-09-26T12:36:00.017Z,752
2022-09-26T12:41:24.965Z,616
2022-09-26T12:42:05.561Z,648
2022-09-26T12:42:46.051Z,644
2022-09-26T12:43:26.602Z,620
2022-09-26T12:44:07.110Z,592
2022-09-26T12:44:47.729Z,540
2022-09-26T12:45:28.228Z,520
2022-09-26T12:46:09.356Z,500
2022-09-26T12:46:49.927Z,484
2022-09-26T12:50:30.724Z,316
2022-09-26T12:51:11.117Z,284
2022-09-26T12:51:51.630Z,272
2022-09-26T12:52:32.384Z,260
2022-09-26T12:53:12.813Z,260
2022-09-26T12:53:53.429Z,264
2022-09-26T12:54:33.937Z,268
2022-09-26T12:55:15.358Z,276
2022-09-26T12:58:40.255Z,320
2022-09-26T12:59:22.318Z,336
2022-09-26T13:00:04.422Z,364
2022-09-26T13:00:44.918Z,396
2022-09-26T13:01:25.612Z,424
2022-09-26T13:07:30.482Z,740
2022-09-26T13:08:10.999Z,760
2022-09-26T13:08:51.799Z,768
2022-09-26T13:09:33.227Z,784
2022-09-26T13:10:14.668Z,792
2022-09-26T13:14:20.162Z,776
2022-09-26T13:15:00.847Z,776
2022-09-26T13:15:41.479Z,768
2022-09-26T13:16:22.025Z,760
2022-09-26T13:17:02.504Z,744
2022-09-26T13:17:43.492Z,712
2022-09-26T13:18:26.489Z,696
2022-09-26T13:19:04.397Z,680
2022-09-26T13:19:44.905Z,668
2022-09-26T13:20:25.485Z,648
2022-09-26T13:25:51.129Z,548
2022-09-26T13:26:31.643Z,528
2022-09-26T13:27:12.286Z,516
2022-09-26T13:27:52.994Z,508
2022-09-26T13:28:34.694Z,488
2022-09-26T13:29:18.494Z,472
2022-09-26T13:30:04.165Z,452
2022-09-26T13:30:44.939Z,444
2022-09-26T13:33:30.286Z,464
2022-09-26T13:34:12.382Z,480
2022-09-26T13:34:52.939Z,496
2022-09-26T13:35:33.501Z,504
2022-09-26T13:36:15.127Z,516
2022-09-26T13:36:56.175Z,528
2022-09-26T13:40:26.077Z,524
2022-09-26T13:43:50.172Z,468
2022-09-26T13:44:30.701Z,460
2022-09-26T13:45:11.566Z,460
2022-09-26T13:45:52.164Z,476
2022-09-26T13:46:32.718Z,480
2022-09-26T13:47:13.172Z,496
2022-09-26T13:47:53.713Z,508
2022-09-26T13:48:34.274Z,500
2022-09-26T13:49:14.829Z,488
2022-09-26T13:49:55.416Z,476
2022-09-26T13:52:40.164Z,452
2022-09-26T13:53:21.431Z,452
2022-09-26T13:54:11.236Z,480
2022-09-26T13:54:51.924Z,504
2022-09-26T13:55:33.012Z,520
2022-09-26T13:57:46.174Z,548
2022-09-26T13:58:26.792Z,548
2022-09-26T13:59:07.271Z,556
2022-09-26T13:59:47.783Z,576
2022-09-26T14:00:28.359Z,596
2022-09-26T14:01:08.901Z,604
2022-09-26T14:01:49.440Z,592
2022-09-26T14:02:29.972Z,588
2022-09-26T14:03:10.483Z,576
2022-09-26T14:09:56.160Z,396
2022-09-26T14:10:36.680Z,380
2022-09-26T14:11:17.160Z,364
2022-09-26T14:11:57.663Z,356
2022-09-26T14:12:38.172Z,356
2022-09-26T14:13:18.699Z,348
2022-09-26T14:13:59.192Z,308
2022-09-26T14:14:39.692Z,292
2022-09-26T14:15:20.227Z,288
2022-09-26T14:16:00.838Z,280
2022-09-26T14:22:46.285Z,296
2022-09-26T14:23:26.681Z,276
2022-09-26T14:24:07.283Z,280
2022-09-26T14:24:47.869Z,276
2022-09-26T14:25:28.248Z,260
2022-09-26T14:26:08.968Z,252
2022-09-26T14:26:49.450Z,264
2022-09-26T14:27:29.962Z,268
2022-09-26T14:28:10.508Z,252
2022-09-26T14:28:51.524Z,236
2022-09-26T14:33:36.049Z,336
2022-09-26T14:34:16.850Z,352
2022-09-26T14:34:57.300Z,372
2022-09-26T14:35:37.701Z,364
2022-09-26T14:36:18.131Z,356
2022-09-26T14:36:58.626Z,360
2022-09-26T14:37:39.332Z,364
2022-09-26T14:38:19.752Z,348
2022-09-26T14:39:00.234Z,372
2022-09-26T14:39:40.673Z,404
2022-09-26T14:40:21.250Z,380
2022-09-26T14:47:06.284Z,332
2022-09-26T14:47:46.826Z,320
2022-09-26T14:48:27.361Z,284
2022-09-26T14:49:08.740Z,292
2022-09-26T14:49:49.265Z,316
2022-09-26T14:50:29.743Z,320
2022-09-26T14:51:10.195Z,308
2022-09-26T14:51:50.671Z,316
2022-09-26T14:52:31.179Z,292
2022-09-26T14:58:35.868Z,236
2022-09-26T14:59:16.372Z,220
2022-09-26T14:59:56.869Z,248
2022-09-26T15:00:37.404Z,264
2022-09-26T15:01:18.051Z,224
2022-09-26T15:01:58.458Z,180
2022-09-26T15:02:39.170Z,168
2022-09-26T15:03:19.738Z,156
2022-09-26T15:04:00.038Z,156
2022-09-26T15:04:40.561Z,168
2022-09-26T15:05:21.070Z,160
2022-09-26T15:12:05.968Z,320
2022-09-26T15:12:46.538Z,296
2022-09-26T15:13:27.008Z,276
2022-09-26T15:14:07.533Z,288
2022-09-26T15:14:48.028Z,292
2022-09-26T15:15:28.480Z,288
2022-09-26T15:16:09.015Z,264
2022-09-26T15:16:49.469Z,244
2022-09-26T15:17:29.959Z,236
2022-09-26T15:18:10.513Z,224
2022-09-26T15:18:50.975Z,212
2022-09-26T15:25:35.996Z,136
2022-09-26T15:26:16.788Z,144
2022-09-26T15:26:57.267Z,148
2022-09-26T15:27:39.204Z,164
2022-09-26T15:28:18.371Z,176
2022-09-26T15:28:58.832Z,200
2022-09-26T15:29:39.511Z,220
2022-09-26T15:30:20.001Z,240
2022-09-26T15:31:01.277Z,236
2022-09-26T15:37:46.076Z,140
2022-09-26T15:38:26.562Z,136
2022-09-26T15:39:07.045Z,124
2022-09-26T15:39:47.511Z,124
2022-09-26T15:40:28.030Z,112
2022-09-26T15:41:08.621Z,104
2022-09-26T15:41:49.053Z,108
2022-09-26T15:42:29.519Z,104
2022-09-26T15:43:10.027Z,92
2022-09-26T15:43:50.489Z,96
2022-09-26T15:44:30.975Z,92
2022-09-26T15:51:15.977Z,80
2022-09-26T15:51:56.431Z,76
2022-09-26T15:52:36.945Z,76
2022-09-26T15:53:17.453Z,76
2022-09-26T15:53:57.932Z,72
2022-09-26T15:54:38.439Z,68
2022-09-26T15:55:18.922Z,64
2022-09-26T15:55:59.421Z,68
2022-09-26T15:56:39.954Z,56
2022-09-26T15:57:20.393Z,48
2022-09-26T15:58:00.896Z,48
2022-09-26T16:05:26.307Z,56
2022-09-26T16:06:06.791Z,56
2022-09-26T16:06:47.266Z,52
2022-09-26T16:07:28.701Z,56
2022-09-26T16:08:09.144Z,48
2022-09-26T16:08:50.606Z,52
2022-09-26T16:09:31.120Z,44
2022-09-26T16:16:16.241Z,44
2022-09-26T16:16:56.636Z,36
2022-09-26T16:17:37.124Z,32
2022-09-26T16:18:17.625Z,44
2022-09-26T16:18:58.116Z,36
2022-09-26T16:19:38.578Z,36
2022-09-26T16:20:19.056Z,32
2022-09-26T16:20:59.544Z,36
2022-09-26T16:22:20.676Z,36
2022-09-26T16:23:04.663Z,36
2022-09-26T16:28:25.908Z,36
2022-09-26T16:29:06.401Z,36
2022-09-26T16:29:46.907Z,40
2022-09-26T16:30:27.435Z,40
2022-09-26T16:31:08.083Z,44
2022-09-26T16:31:48.535Z,44
2022-09-26T16:33:09.841Z,40
2022-09-26T16:33:50.355Z,44
2022-09-26T16:34:30.847Z,44
2022-09-26T16:41:15.855Z,32
2022-09-26T16:42:01.585Z,32
2022-09-26T16:42:36.807Z,36
2022-09-26T16:43:17.329Z,32
2022-09-26T16:43:57.808Z,28
2022-09-26T16:44:38.464Z,24
2022-09-26T16:45:18.812Z,28
2022-09-26T16:45:59.315Z,28
2022-09-26T16:46:39.823Z,24
2022-09-26T16:47:20.245Z,28
2022-09-26T16:48:00.664Z,28
2022-09-26T16:55:26.003Z,16
2022-09-26T16:56:06.527Z,20
2022-09-26T16:56:47.120Z,16
2022-09-26T16:57:27.607Z,16
2022-09-26T16:58:08.071Z,16
2022-09-26T16:58:48.583Z,20
2022-09-26T16:59:29.050Z,16
2022-09-26T17:00:09.570Z,16
2022-09-26T17:00:52.302Z,16
2022-09-26T17:01:30.575Z,12
2022-09-26T17:08:56.678Z,8
2022-09-26T17:09:37.183Z,8
2022-09-26T17:10:17.673Z,8
2022-09-26T17:10:58.201Z,8
2022-09-26T17:11:38.671Z,8
2022-09-26T17:12:59.647Z,8
2022-09-26T17:13:40.137Z,4
2022-09-26T17:14:20.667Z,8
2022-09-26T17:21:45.956Z,0
2022-09-26T17:22:26.391Z,4
2022-09-26T17:23:22.155Z,0
2022-09-26T17:23:47.380Z,0
2022-09-26T17:24:27.909Z,4
2022-09-26T17:25:08.408Z,0
2022-09-26T17:25:48.929Z,0
2022-09-26T17:26:29.456Z,0
2022-09-26T17:27:09.942Z,4
2022-09-26T17:27:50.470Z,4
2022-09-26T17:28:30.928Z,4
2022-09-26T17:34:35.915Z,0
2022-09-26T17:35:16.360Z,0
2022-09-26T17:35:56.812Z,0
2022-09-26T17:36:37.313Z,0
2022-09-26T17:37:17.813Z,0
2022-09-26T17:37:58.280Z,0
2022-09-26T17:38:38.996Z,0
2022-09-26T17:39:19.286Z,0
2022-09-26T17:39:59.806Z,0
2022-09-26T17:40:40.358Z,0
2022-09-26T17:41:20.800Z,0
2022-09-26T17:48:46.206Z,0
2022-09-26T17:49:26.707Z,0
2022-09-26T17:50:07.178Z,0
2022-09-26T17:50:47.692Z,0
2022-09-26T17:51:28.155Z,0
2022-09-26T17:52:09.637Z,0
2022-09-26T17:52:50.158Z,0
2022-09-26T17:53:32.632Z,0
2022-09-26T18:34:40.703Z,0
2022-09-26T18:35:21.177Z,0
2022-09-26T18:36:01.616Z,0
2022-09-26T18:36:42.120Z,0
2022-09-26T18:37:22.554Z,0
2022-09-26T18:38:03.085Z,0
2022-09-26T18:38:43.585Z,0
2022-09-26T18:39:24.060Z,0
2022-09-26T18:40:04.778Z,0
2022-09-26T18:40:45.181Z,0
2022-09-26T18:41:25.585Z,0
2022-09-26T18:48:10.573Z,0
2022-09-26T18:48:51.044Z,0
2022-09-26T18:49:31.556Z,0
2022-09-26T18:50:12.065Z,0
2022-09-26T18:50:52.547Z,0
2022-09-26T18:51:32.978Z,0
2022-09-26T18:52:13.513Z,0
2022-09-26T18:52:53.969Z,0
2022-09-26T18:53:34.433Z,0
2022-09-26T18:54:55.453Z,0
2022-09-26T19:02:20.963Z,0
2022-09-26T19:03:02.173Z,0
2022-09-26T19:03:42.614Z,0
2022-09-26T19:04:23.157Z,0
2022-09-26T19:05:03.641Z,0
2022-09-26T19:05:44.160Z,0
2022-09-26T19:06:24.650Z,0
2022-09-26T19:07:05.132Z,0
2022-09-26T19:07:45.631Z,0
2022-09-26T19:14:30.613Z,0
2022-09-26T19:15:11.106Z,0
2022-09-26T19:15:51.672Z,0
2022-09-26T19:16:32.188Z,0
2022-09-26T19:17:12.578Z,0
2022-09-26T19:17:53.062Z,0
2022-09-26T19:18:33.533Z,0
2022-09-26T19:19:14.022Z,0
2022-09-26T19:19:54.497Z,0
2022-09-26T19:21:15.488Z,0
2022-09-26T19:27:31.250Z,0
2022-09-26T19:28:11.738Z,0
2022-09-26T19:28:52.231Z,0
2022-09-26T19:29:32.712Z,0
2022-09-26T19:30:13.181Z,0
2022-09-26T19:30:53.855Z,0
2022-09-26T19:31:34.391Z,0
2022-09-26T19:32:14.873Z,0
2022-09-26T19:32:55.324Z,0
2022-09-26T19:33:35.835Z,0
2022-09-26T19:34:16.499Z,0
2022-09-26T19:39:40.998Z,0
2022-09-26T19:40:21.529Z,0
2022-09-26T19:41:02.082Z,0
2022-09-26T19:41:42.518Z,0
2022-09-26T19:42:22.981Z,0
2022-09-26T19:43:03.473Z,0
2022-09-26T19:43:43.943Z,0
2022-09-26T19:44:24.441Z,0
2022-09-26T19:45:04.899Z,0
2022-09-26T19:45:45.478Z,0
2022-09-26T19:46:25.992Z,0
2022-09-26T19:53:10.981Z,0
2022-09-26T19:53:51.461Z,0
2022-09-26T19:54:31.922Z,0
2022-09-26T19:55:12.413Z,0
2022-09-26T19:55:52.941Z,0
2022-09-26T19:56:33.432Z,0
2022-09-26T19:57:13.935Z,0
2022-09-26T19:57:54.456Z,0
2022-09-26T19:58:34.938Z,0
2022-09-26T19:59:15.436Z,0
2022-09-26T19:59:55.916Z,0
2022-09-26T20:06:41.450Z,0
2022-09-26T20:07:21.936Z,0
2022-09-26T20:08:02.464Z,0
2022-09-26T20:08:42.946Z,0
2022-09-26T20:10:03.877Z,0
2022-09-26T20:10:44.386Z,0
2022-09-26T20:11:24.900Z,0
2022-09-26T20:12:05.481Z,0
2022-09-26T20:12:46.004Z,0
2022-09-26T20:19:31.505Z,0
2022-09-26T20:20:12.296Z,0